createdAt,value
2022-08-29T00:01:10.579Z,1.30
2022-08-29T00:03:38.481Z,1.20
2022-08-29T00:06:08.102Z,1.48
2022-08-29T00:08:35.101Z,1.42
2022-08-29T00:11:02.351Z,1.38
2022-08-29T00:13:29.310Z,1.20
2022-08-29T00:15:56.971Z,1.40
2022-08-29T00:18:24.189Z,1.38
2022-08-29T00:20:52.161Z,1.70
2022-08-29T00:23:19.723Z,1.08
2022-08-29T00:25:47.170Z,1.30
2022-08-29T00:28:14.508Z,1.83
2022-08-29T00:30:41.953Z,1.45
2022-08-29T00:33:09.344Z,1.33
2022-08-29T00:35:38.123Z,1.55
2022-08-29T00:38:06.559Z,1.75
2022-08-29T00:40:37.816Z,1.23
2022-08-29T00:43:05.864Z,1.20
2022-08-29T00:45:33.655Z,1.60
2022-08-29T00:48:15.274Z,1.90
2022-08-29T00:50:49.031Z,1.73
2022-08-29T00:53:17.727Z,1.60
2022-08-29T00:55:50.611Z,1.17
2022-08-29T00:58:23.125Z,1.05
2022-08-29T01:00:50.182Z,1.33
2022-08-29T01:03:16.997Z,1.35
2022-08-29T01:05:44.248Z,1.30
2022-08-29T01:08:11.696Z,1.70
2022-08-29T01:10:57.584Z,1.10
2022-08-29T01:13:26.571Z,1.58
2022-08-29T01:15:55.056Z,1.25
2022-08-29T01:18:22.958Z,1.73
2022-08-29T01:21:16.561Z,1.35
2022-08-29T01:24:02.392Z,1.10
2022-08-29T01:26:30.798Z,1.55
2022-08-29T01:28:58.377Z,1.27
2022-08-29T01:31:37.904Z,1.42
2022-08-29T01:34:15.574Z,1.35
2022-08-29T01:36:47.262Z,2.08
2022-08-29T01:39:14.537Z,1.33
2022-08-29T01:41:44.302Z,1.50
2022-08-29T01:44:14.351Z,1.20
2022-08-29T01:46:41.903Z,1.08
2022-08-29T01:49:10.242Z,1.33
2022-08-29T01:51:37.683Z,1.42
2022-08-29T01:54:07.266Z,1.40
2022-08-29T01:56:37.886Z,1.80
2022-08-29T01:59:07.085Z,1.40
2022-08-29T02:01:35.608Z,1.67
2022-08-29T02:04:03.444Z,1.40
2022-08-29T02:06:30.698Z,1.50
2022-08-29T02:08:57.905Z,1.38
2022-08-29T02:11:25.412Z,1.50
2022-08-29T02:13:55.315Z,1.35
2022-08-29T02:16:23.501Z,1.27
2022-08-29T02:18:51.067Z,1.30
2022-08-29T02:21:20.427Z,1.23
2022-08-29T02:23:49.953Z,1.55
2022-08-29T02:26:17.715Z,1.40
2022-08-29T02:28:44.643Z,1.40
2022-08-29T02:31:12.134Z,1.70
2022-08-29T02:33:39.703Z,1.30
2022-08-29T02:36:07.266Z,1.25
2022-08-29T02:38:35.399Z,1.33
2022-08-29T02:41:03.032Z,1.40
2022-08-29T02:43:30.255Z,1.30
2022-08-29T02:45:57.500Z,1.40
2022-08-29T02:48:24.732Z,1.23
2022-08-29T02:50:53.988Z,1.38
2022-08-29T02:53:22.327Z,1.20
2022-08-29T02:55:51.422Z,1.20
2022-08-29T02:58:19.228Z,1.33
2022-08-29T03:00:46.519Z,1.65
2022-08-29T03:03:14.172Z,1.42
2022-08-29T03:05:41.864Z,1.60
2022-08-29T03:08:11.270Z,1.52
2022-08-29T03:10:38.253Z,1.30
2022-08-29T03:13:05.923Z,1.40
2022-08-29T03:15:32.790Z,1.10
2022-08-29T03:18:01.287Z,1.80
2022-08-29T03:20:28.721Z,1.08
2022-08-29T03:22:56.429Z,1.40
2022-08-29T03:25:24.369Z,1.33
2022-08-29T03:27:52.895Z,1.23
2022-08-29T03:30:20.991Z,1.63
2022-08-29T03:32:51.371Z,1.35
2022-08-29T03:35:19.671Z,1.40
2022-08-29T03:37:46.940Z,1.30
2022-08-29T03:40:14.359Z,1.38
2022-08-29T03:42:42.918Z,1.33
2022-08-29T03:45:11.769Z,1.48
2022-08-29T03:47:39.441Z,1.20
2022-08-29T03:50:07.106Z,1.30
2022-08-29T03:52:34.422Z,1.25
2022-08-29T03:55:01.481Z,1.20
2022-08-29T03:57:31.251Z,1.25
2022-08-29T03:59:58.555Z,1.48
2022-08-29T04:02:25.892Z,1.20
2022-08-29T04:05:08.668Z,1.10
2022-08-29T04:07:45.459Z,1.38
2022-08-29T04:10:14.477Z,1.25
2022-08-29T04:12:41.711Z,1.30
2022-08-29T04:15:09.573Z,1.20
2022-08-29T04:17:38.124Z,1.58
2022-08-29T04:20:24.743Z,1.77
2022-08-29T04:22:54.451Z,1.20
2022-08-29T04:25:22.394Z,1.30
2022-08-29T04:27:49.842Z,1.38
2022-08-29T04:30:18.495Z,1.55
2022-08-29T04:32:45.750Z,1.27
2022-08-29T04:35:13.976Z,1.75
2022-08-29T04:37:41.795Z,1.70
2022-08-29T04:40:10.157Z,1.70
2022-08-29T04:42:38.574Z,1.25
2022-08-29T04:45:09.665Z,1.50
2022-08-29T04:47:37.075Z,1.42
2022-08-29T04:50:05.033Z,1.10
2022-08-29T04:52:32.227Z,1.63
2022-08-29T04:55:00.326Z,1.30
2022-08-29T04:57:27.221Z,1.50
2022-08-29T04:59:56.509Z,1.70
2022-08-29T05:02:24.707Z,1.63
2022-08-29T05:04:56.780Z,1.30
2022-08-29T05:07:26.065Z,1.30
2022-08-29T05:09:58.715Z,1.35
2022-08-29T05:12:26.500Z,1.17
2022-08-29T05:14:54.687Z,1.27
2022-08-29T05:17:22.275Z,1.17
2022-08-29T05:19:49.516Z,1.25
2022-08-29T05:22:17.836Z,1.30
2022-08-29T05:24:45.182Z,1.52
2022-08-29T05:27:14.601Z,1.98
2022-08-29T05:29:43.051Z,1.30
2022-08-29T05:32:11.653Z,1.38
2022-08-29T05:34:39.700Z,1.50
2022-08-29T05:37:09.188Z,1.48
2022-08-29T05:39:37.494Z,1.23
2022-08-29T05:42:05.012Z,1.42
2022-08-29T05:44:35.265Z,1.40
2022-08-29T05:47:03.894Z,1.27
2022-08-29T05:49:31.306Z,1.90
2022-08-29T05:52:00.704Z,1.75
2022-08-29T05:54:29.898Z,1.38
2022-08-29T05:56:58.132Z,1.52
2022-08-29T05:59:25.468Z,1.23
2022-08-29T06:01:52.803Z,2.30
2022-08-29T06:04:20.178Z,1.63
2022-08-29T06:06:47.484Z,1.63
2022-08-29T06:09:14.439Z,1.70
2022-08-29T06:11:41.756Z,1.42
2022-08-29T06:14:08.976Z,1.95
2022-08-29T06:16:36.277Z,1.10
2022-08-29T06:19:03.795Z,1.55
2022-08-29T06:21:31.128Z,1.52
2022-08-29T06:23:58.617Z,0.98
2022-08-29T06:26:25.863Z,1.80
2022-08-29T06:28:53.122Z,1.50
2022-08-29T06:31:22.021Z,1.60
2022-08-29T06:33:52.937Z,1.35
2022-08-29T06:36:20.786Z,1.30
2022-08-29T06:38:48.029Z,1.40
2022-08-29T06:41:16.117Z,1.52
2022-08-29T06:43:44.294Z,1.48
2022-08-29T06:46:39.078Z,1.60
2022-08-29T06:49:07.914Z,1.95
2022-08-29T06:51:36.938Z,1.48
2022-08-29T06:54:07.089Z,1.58
2022-08-29T06:56:37.121Z,1.35
2022-08-29T06:59:04.784Z,1.40
2022-08-29T07:01:32.120Z,1.60
2022-08-29T07:04:01.024Z,1.73
2022-08-29T07:06:29.313Z,1.52
2022-08-29T07:08:57.364Z,1.48
2022-08-29T07:11:25.383Z,1.80
2022-08-29T07:13:53.043Z,1.50
2022-08-29T07:16:20.605Z,1.58
2022-08-29T07:18:50.244Z,1.10
2022-08-29T07:21:20.953Z,1.60
2022-08-29T07:23:49.128Z,1.60
2022-08-29T07:26:16.377Z,1.48
2022-08-29T07:28:47.278Z,1.40
2022-08-29T07:31:15.042Z,2.50
2022-08-29T07:33:42.645Z,1.75
2022-08-29T07:36:10.039Z,1.90
2022-08-29T07:38:38.387Z,1.50
2022-08-29T07:41:07.175Z,1.42
2022-08-29T07:43:35.012Z,1.75
2022-08-29T07:46:13.563Z,1.52
2022-08-29T07:48:41.383Z,1.92
2022-08-29T07:51:10.600Z,1.60
2022-08-29T07:53:38.715Z,1.35
2022-08-29T07:56:13.885Z,1.58
2022-08-29T07:58:42.804Z,1.57
2022-08-29T08:01:12.542Z,1.48
2022-08-29T08:03:48.793Z,1.40
2022-08-29T08:06:17.527Z,1.40
2022-08-29T08:08:44.957Z,2.78
2022-08-29T08:11:12.339Z,1.77
2022-08-29T08:13:39.825Z,1.38
2022-08-29T08:16:08.878Z,1.38
2022-08-29T08:18:37.552Z,1.55
2022-08-29T08:21:05.259Z,1.35
2022-08-29T08:23:33.400Z,1.77
2022-08-29T08:26:01.119Z,1.77
2022-08-29T08:28:30.511Z,1.45
2022-08-29T08:31:02.323Z,1.40
2022-08-29T08:33:35.041Z,1.77
2022-08-29T08:36:02.754Z,1.90
2022-08-29T08:38:31.488Z,1.52
2022-08-29T08:41:01.925Z,1.60
2022-08-29T08:43:34.373Z,1.20
2022-08-29T08:46:01.386Z,1.35
2022-08-29T08:48:34.629Z,1.40
2022-08-29T08:51:10.830Z,1.60
2022-08-29T08:53:43.676Z,1.55
2022-08-29T08:56:26.688Z,1.48
2022-08-29T08:59:03.232Z,1.60
2022-08-29T09:01:53.616Z,1.30
2022-08-29T09:04:21.760Z,1.40
2022-08-29T09:06:49.049Z,1.42
2022-08-29T09:09:21.765Z,1.35
2022-08-29T09:11:55.577Z,1.13
2022-08-29T09:14:49.609Z,1.63
2022-08-29T09:17:22.705Z,1.30
2022-08-29T09:19:50.990Z,1.70
2022-08-29T09:22:26.628Z,1.40
2022-08-29T09:25:02.084Z,1.58
2022-08-29T09:27:31.277Z,1.65
2022-08-29T09:30:26.355Z,1.50
2022-08-29T09:32:56.692Z,1.40
2022-08-29T09:35:33.821Z,1.40
2022-08-29T09:38:06.296Z,1.55
2022-08-29T09:40:42.202Z,1.25
2022-08-29T09:46:02.349Z,1.35
2022-08-29T09:48:35.385Z,1.60
2022-08-29T09:51:24.600Z,1.30
2022-08-29T09:54:10.440Z,1.38
2022-08-29T09:56:39.320Z,1.60
2022-08-29T09:59:17.299Z,1.83
2022-08-29T10:01:44.636Z,1.60
2022-08-29T10:04:12.060Z,1.27
2022-08-29T10:06:45.248Z,1.40
2022-08-29T10:09:33.851Z,1.08
2022-08-29T10:12:04.226Z,1.38
2022-08-29T10:14:34.452Z,1.25
2022-08-29T10:17:39.998Z,1.60
2022-08-29T10:20:09.922Z,1.60
2022-08-29T10:22:41.714Z,1.85
2022-08-29T10:25:29.923Z,1.23
2022-08-29T10:27:57.712Z,1.35
2022-08-29T10:30:28.189Z,1.23
2022-08-29T10:32:58.610Z,1.30
2022-08-29T10:35:29.964Z,1.50
2022-08-29T10:38:04.961Z,1.08
2022-08-29T10:40:43.620Z,1.30
2022-08-29T10:43:35.510Z,1.40
2022-08-29T10:46:05.760Z,1.33
2022-08-29T10:48:38.249Z,1.23
2022-08-29T10:51:11.818Z,1.30
2022-08-29T10:53:40.998Z,1.63
2022-08-29T10:56:23.080Z,1.73
2022-08-29T10:59:01.302Z,1.50
2022-08-29T11:01:35.902Z,1.17
2022-08-29T11:04:06.445Z,1.48
2022-08-29T11:06:42.096Z,1.50
2022-08-29T11:09:27.386Z,1.17
2022-08-29T11:12:00.928Z,1.08
2022-08-29T11:14:32.606Z,1.60
2022-08-29T11:17:03.213Z,1.25
2022-08-29T11:19:53.867Z,1.40
2022-08-29T11:22:22.970Z,1.50
2022-08-29T11:24:54.479Z,1.40
2022-08-29T11:27:40.967Z,1.48
2022-08-29T11:30:20.646Z,1.10
2022-08-29T11:33:08.601Z,1.23
2022-08-29T11:35:54.936Z,1.15
2022-08-29T11:43:56.723Z,1.40
2022-08-29T11:46:33.661Z,1.25
2022-08-29T11:49:19.980Z,0.80
2022-08-29T11:51:51.679Z,1.17
2022-08-29T11:54:25.214Z,1.38
2022-08-29T11:57:02.227Z,1.30
2022-08-29T11:59:48.535Z,1.20
2022-08-29T12:04:54.056Z,1.20
2022-08-29T12:07:22.741Z,0.82
2022-08-29T12:09:52.525Z,1.40
2022-08-29T12:12:39.990Z,1.27
2022-08-29T12:15:39.366Z,1.40
2022-08-29T12:18:14.558Z,1.40
2022-08-29T12:20:43.752Z,1.80
2022-08-29T12:23:13.978Z,1.63
2022-08-29T12:26:03.889Z,2.03
2022-08-29T12:28:37.468Z,1.20
2022-08-29T12:31:23.374Z,1.50
2022-08-29T12:34:03.242Z,1.00
2022-08-29T12:36:37.298Z,1.08
2022-08-29T12:39:19.368Z,1.38
2022-08-29T12:42:09.603Z,1.05
2022-08-29T12:44:38.366Z,1.20
2022-08-29T12:47:12.869Z,1.23
2022-08-29T12:49:51.419Z,1.17
2022-08-29T12:52:21.862Z,1.10
2022-08-29T12:54:51.198Z,1.20
2022-08-29T12:57:26.600Z,0.90
2022-08-29T12:59:54.205Z,1.20
2022-08-29T13:02:32.559Z,1.20
2022-08-29T13:05:00.404Z,1.77
2022-08-29T13:07:28.536Z,1.60
2022-08-29T13:09:57.923Z,1.25
2022-08-29T13:12:34.577Z,1.00
2022-08-29T13:15:03.497Z,1.40
2022-08-29T13:17:34.361Z,1.08
2022-08-29T13:20:21.331Z,0.90
2022-08-29T13:22:48.847Z,0.75
2022-08-29T13:25:19.509Z,1.25
2022-08-29T13:27:48.329Z,1.30
2022-08-29T13:30:25.283Z,1.20
2022-08-29T13:32:53.292Z,1.17
2022-08-29T13:35:28.913Z,1.30
2022-08-29T13:38:17.882Z,1.30
2022-08-29T13:40:49.817Z,1.05
2022-08-29T13:43:35.904Z,1.20
2022-08-29T13:46:27.223Z,1.30
2022-08-29T13:49:02.522Z,1.10
2022-08-29T13:51:29.895Z,1.08
2022-08-29T13:53:57.486Z,1.00
2022-08-29T13:56:32.437Z,1.27
2022-08-29T13:59:00.130Z,0.75
2022-08-29T14:02:07.248Z,1.00
2022-08-29T14:04:36.834Z,1.20
2022-08-29T14:07:03.321Z,1.08
2022-08-29T14:09:35.486Z,1.10
2022-08-29T14:12:03.362Z,0.93
2022-08-29T14:14:30.607Z,1.08
2022-08-29T14:16:58.591Z,0.80
2022-08-29T14:19:26.630Z,1.10
2022-08-29T14:21:54.964Z,0.98
2022-08-29T14:24:22.729Z,0.80
2022-08-29T14:27:02.077Z,0.82
2022-08-29T14:29:30.741Z,0.90
2022-08-29T14:31:58.430Z,1.00
2022-08-29T14:34:25.598Z,0.95
2022-08-29T14:36:58.022Z,0.90
2022-08-29T14:39:26.283Z,1.17
2022-08-29T14:41:54.202Z,1.15
2022-08-29T14:44:22.174Z,1.35
2022-08-29T14:46:49.983Z,0.95
2022-08-29T14:49:17.510Z,0.60
2022-08-29T14:51:44.948Z,1.00
2022-08-29T14:54:12.670Z,1.00
2022-08-29T14:56:48.841Z,1.00
2022-08-29T14:59:17.973Z,1.08
2022-08-29T15:01:47.616Z,1.08
2022-08-29T15:04:18.777Z,0.88
2022-08-29T15:06:54.665Z,1.00
2022-08-29T15:09:21.954Z,0.70
2022-08-29T15:11:49.216Z,1.10
2022-08-29T15:14:16.439Z,1.02
2022-08-29T15:16:43.688Z,1.00
2022-08-29T15:21:58.264Z,0.90
2022-08-29T15:24:27.414Z,0.82
2022-08-29T15:26:57.669Z,0.93
2022-08-29T15:29:25.047Z,0.90
2022-08-29T15:31:52.561Z,0.80
2022-08-29T15:34:19.409Z,1.40
2022-08-29T15:36:46.675Z,0.82
2022-08-29T15:39:14.028Z,0.70
2022-08-29T15:41:41.370Z,0.95
2022-08-29T15:44:08.814Z,0.85
2022-08-29T15:46:38.027Z,1.20
2022-08-29T15:49:08.849Z,2.08
2022-08-29T15:51:35.955Z,3.92
2022-08-29T15:54:03.479Z,2.30
2022-08-29T15:56:35.110Z,2.75
2022-08-29T15:59:05.621Z,4.35
2022-08-29T16:01:37.818Z,8.77
2022-08-29T16:04:08.935Z,7.60
2022-08-29T16:06:36.440Z,5.60
2022-08-29T16:09:15.219Z,5.78
2022-08-29T16:11:44.244Z,3.53
2022-08-29T16:16:59.214Z,1.83
2022-08-29T16:19:26.475Z,1.60
2022-08-29T16:21:59.726Z,2.25
2022-08-29T16:24:31.627Z,1.70
2022-08-29T16:26:59.707Z,2.17
2022-08-29T16:29:27.777Z,1.48
2022-08-29T16:31:56.070Z,1.48
2022-08-29T16:34:26.327Z,1.40
2022-08-29T16:36:57.364Z,1.65
2022-08-29T16:39:24.662Z,1.83
2022-08-29T16:41:51.942Z,8.88
2022-08-29T16:44:20.396Z,4.13
2022-08-29T16:46:47.665Z,1.92
2022-08-29T16:49:14.976Z,1.80
2022-08-29T16:51:41.780Z,1.50
2022-08-29T16:54:09.120Z,1.20
2022-08-29T16:56:36.427Z,1.35
2022-08-29T16:59:04.466Z,1.00
2022-08-29T17:01:40.621Z,1.10
2022-08-29T17:04:10.593Z,0.85
2022-08-29T17:06:39.775Z,1.33
2022-08-29T17:09:08.980Z,1.02
2022-08-29T17:11:39.541Z,1.20
2022-08-29T17:14:08.038Z,0.85
2022-08-29T17:16:36.797Z,0.90
2022-08-29T17:19:05.006Z,0.88
2022-08-29T17:21:32.293Z,1.05
2022-08-29T17:23:59.925Z,1.35
2022-08-29T17:26:27.030Z,1.13
2022-08-29T17:28:54.231Z,1.00
2022-08-29T17:31:21.525Z,1.17
2022-08-29T17:33:49.341Z,1.05
2022-08-29T17:36:16.959Z,0.95
2022-08-29T17:38:45.682Z,1.10
2022-08-29T17:41:18.580Z,0.80
2022-08-29T17:43:47.364Z,0.80
2022-08-29T17:46:15.591Z,1.20
2022-08-29T17:48:43.259Z,0.85
2022-08-29T17:51:10.311Z,0.90
2022-08-29T17:53:37.859Z,0.98
2022-08-29T17:56:16.428Z,1.30
2022-08-29T17:58:43.790Z,0.95
2022-08-29T18:01:15.969Z,0.70
2022-08-29T18:03:44.611Z,0.77
2022-08-29T18:06:14.302Z,1.17
2022-08-29T18:08:42.005Z,1.25
2022-08-29T18:11:16.509Z,0.82
2022-08-29T18:13:43.939Z,1.20
2022-08-29T18:16:12.047Z,1.05
2022-08-29T18:18:39.619Z,1.25
2022-08-29T18:21:07.019Z,1.48
2022-08-29T18:23:34.283Z,1.40
2022-08-29T18:26:02.592Z,1.00
2022-08-29T18:28:30.328Z,1.17
2022-08-29T18:30:59.337Z,1.08
2022-08-29T18:33:38.919Z,1.15
2022-08-29T18:36:15.152Z,1.17
2022-08-29T18:38:43.929Z,0.68
2022-08-29T18:41:11.685Z,0.90
2022-08-29T18:43:38.932Z,1.20
2022-08-29T18:46:06.119Z,1.27
2022-08-29T18:48:33.798Z,1.25
2022-08-29T18:51:01.174Z,1.00
2022-08-29T18:53:31.120Z,1.25
2022-08-29T18:56:00.527Z,1.17
2022-08-29T18:58:29.763Z,1.13
2022-08-29T19:00:57.842Z,1.65
2022-08-29T19:03:25.480Z,0.90
2022-08-29T19:05:54.312Z,1.10
2022-08-29T19:08:24.571Z,1.00
2022-08-29T19:10:55.305Z,1.05
2022-08-29T19:13:25.338Z,1.13
2022-08-29T19:15:56.921Z,1.00
2022-08-29T19:18:25.355Z,0.90
2022-08-29T19:21:02.886Z,1.13
2022-08-29T19:23:31.883Z,1.30
2022-08-29T19:26:00.772Z,1.35
2022-08-29T19:28:29.214Z,1.73
2022-08-29T19:30:57.230Z,1.38
2022-08-29T19:33:25.228Z,1.20
2022-08-29T19:35:53.898Z,1.40
2022-08-29T19:38:22.509Z,0.88
2022-08-29T19:40:55.319Z,1.25
2022-08-29T19:43:25.313Z,1.25
2022-08-29T19:45:52.949Z,0.90
2022-08-29T19:48:20.784Z,0.88
2022-08-29T19:50:48.738Z,0.73
2022-08-29T19:53:19.965Z,1.25
2022-08-29T19:55:54.128Z,0.85
2022-08-29T19:58:22.752Z,1.27
2022-08-29T20:01:00.387Z,1.30
2022-08-29T20:03:28.840Z,1.00
2022-08-29T20:05:56.434Z,0.80
2022-08-29T20:08:23.656Z,1.27
2022-08-29T20:10:51.283Z,1.17
2022-08-29T20:13:19.396Z,1.20
2022-08-29T20:15:46.454Z,1.30
2022-08-29T20:18:13.989Z,1.02
2022-08-29T20:20:41.378Z,1.10
2022-08-29T20:23:09.264Z,1.17
2022-08-29T20:25:37.031Z,1.10
2022-08-29T20:28:05.389Z,1.02
2022-08-29T20:30:33.981Z,1.27
2022-08-29T20:33:01.690Z,1.23
2022-08-29T20:35:47.872Z,1.08
2022-08-29T20:38:15.245Z,1.50
2022-08-29T20:40:46.805Z,1.10
2022-08-29T20:43:17.553Z,1.33
2022-08-29T20:45:44.983Z,1.35
2022-08-29T20:48:12.811Z,1.30
2022-08-29T20:50:40.358Z,1.25
2022-08-29T20:53:07.793Z,1.50
2022-08-29T20:55:35.085Z,1.17
2022-08-29T20:58:02.455Z,1.38
2022-08-29T21:00:29.794Z,1.35
2022-08-29T21:03:15.817Z,1.38
2022-08-29T21:05:43.216Z,1.40
2022-08-29T21:08:11.363Z,1.27
2022-08-29T21:10:38.728Z,1.40
2022-08-29T21:13:06.009Z,1.25
2022-08-29T21:15:33.318Z,1.58
2022-08-29T21:18:00.486Z,1.40
2022-08-29T21:20:27.903Z,1.40
2022-08-29T21:22:54.793Z,1.27
2022-08-29T21:25:22.080Z,1.50
2022-08-29T21:27:49.308Z,1.80
2022-08-29T21:30:16.688Z,1.63
2022-08-29T21:32:43.984Z,1.13
2022-08-29T21:35:11.243Z,1.45
2022-08-29T21:37:39.153Z,1.33
2022-08-29T21:40:07.322Z,1.08
2022-08-29T21:42:34.754Z,1.23
2022-08-29T21:45:02.028Z,1.63
2022-08-29T21:47:29.219Z,1.40
2022-08-29T21:49:56.740Z,1.30
2022-08-29T21:52:24.114Z,1.40
2022-08-29T21:54:54.144Z,1.40
2022-08-29T21:57:40.354Z,1.42
2022-08-29T22:00:08.404Z,1.10
2022-08-29T22:02:35.692Z,1.42
2022-08-29T22:05:04.657Z,1.52
2022-08-29T22:07:33.285Z,1.10
2022-08-29T22:10:01.440Z,1.40
2022-08-29T22:12:28.823Z,1.00
2022-08-29T22:15:14.259Z,1.30
2022-08-29T22:17:41.581Z,1.20
2022-08-29T22:20:08.822Z,1.50
2022-08-29T22:22:38.229Z,1.10
2022-08-29T22:25:06.323Z,1.17
2022-08-29T22:27:34.287Z,1.48
2022-08-29T22:30:01.794Z,1.48
2022-08-29T22:32:35.819Z,1.58
2022-08-29T22:35:04.108Z,1.20
2022-08-29T22:37:31.829Z,1.25
2022-08-29T22:39:59.650Z,1.20
2022-08-29T22:42:26.940Z,1.33
2022-08-29T22:45:10.226Z,1.63
2022-08-29T22:47:38.222Z,1.42
2022-08-29T22:50:06.817Z,1.13
2022-08-29T22:52:34.423Z,1.17
2022-08-29T22:55:01.640Z,1.40
2022-08-29T22:57:28.864Z,1.17
2022-08-29T22:59:56.410Z,1.20
2022-08-29T23:02:24.300Z,1.35
2022-08-29T23:04:51.945Z,1.30
2022-08-29T23:07:20.070Z,1.10
2022-08-29T23:09:47.429Z,1.00
2022-08-29T23:12:14.835Z,1.30
2022-08-29T23:14:46.346Z,1.33
2022-08-29T23:17:14.036Z,1.13
2022-08-29T23:19:41.482Z,1.10
2022-08-29T23:22:10.914Z,1.10
2022-08-29T23:24:40.297Z,1.42
2022-08-29T23:27:08.401Z,1.23
2022-08-29T23:29:37.085Z,1.13
2022-08-29T23:32:09.346Z,1.13
2022-08-29T23:34:36.584Z,0.88
2022-08-29T23:37:03.897Z,1.33
2022-08-29T23:39:31.104Z,1.33
2022-08-29T23:41:58.307Z,1.40
2022-08-29T23:44:25.189Z,1.08
2022-08-29T23:46:55.221Z,1.48
2022-08-29T23:49:22.832Z,1.00
2022-08-29T23:51:50.521Z,1.30
2022-08-29T23:54:18.105Z,1.27
2022-08-29T23:56:45.664Z,1.17
2022-08-29T23:59:32.673Z,1.20
